sensor_id;sensor_type;location;lat;lon;timestamp;noise_LAeq;noise_LA_min;noise_LA_max;noise_LA01;noise_LA95
37162;Laerm;68342;52.598;13.450;2024-01-06T00:01:42;36.78;30.31;53.76;;
37162;Laerm;68342;52.598;13.450;2024-01-06T00:04:07;36.32;30.33;55.48;;
37162;Laerm;68342;52.598;13.450;2024-01-06T00:06:32;37.19;30.29;56.46;;
37162;Laerm;68342;52.598;13.450;2024-01-06T00:08:57;37.59;30.77;57.51;;
37162;Laerm;68342;52.598;13.450;2024-01-06T00:11:23;36.18;30.14;59.71;;
37162;Laerm;68342;52.598;13.450;2024-01-06T00:13:48;36.66;29.72;56.70;;
37162;Laerm;68342;52.598;13.450;2024-01-06T00:16:16;36.08;30.19;54.22;;
37162;Laerm;68342;52.598;13.450;2024-01-06T00:18:41;37.35;30.84;55.94;;
37162;Laerm;68342;52.598;13.450;2024-01-06T00:21:07;36.38;29.99;55.64;;
37162;Laerm;68342;52.598;13.450;2024-01-06T00:23:33;37.22;30.32;56.13;;
37162;Laerm;68342;52.598;13.450;2024-01-06T00:25:58;36.30;30.12;52.73;;
37162;Laerm;68342;52.598;13.450;2024-01-06T00:28:23;35.92;29.60;55.35;;
37162;Laerm;68342;52.598;13.450;2024-01-06T00:30:49;36.86;30.41;57.10;;
37162;Laerm;68342;52.598;13.450;2024-01-06T00:33:14;36.65;29.89;55.48;;
37162;Laerm;68342;52.598;13.450;2024-01-06T00:35:39;36.76;30.42;52.73;;
37162;Laerm;68342;52.598;13.450;2024-01-06T00:38:05;36.89;30.20;59.34;;
37162;Laerm;68342;52.598;13.450;2024-01-06T00:40:30;36.16;29.91;52.59;;
37162;Laerm;68342;52.598;13.450;2024-01-06T00:42:57;39.83;30.58;60.41;;
37162;Laerm;68342;52.598;13.450;2024-01-06T00:45:22;36.05;29.55;55.17;;
37162;Laerm;68342;52.598;13.450;2024-01-06T00:47:48;37.16;29.84;59.88;;
37162;Laerm;68342;52.598;13.450;2024-01-06T00:50:13;40.37;31.57;57.28;;
37162;Laerm;68342;52.598;13.450;2024-01-06T00:52:38;36.68;29.89;55.46;;
37162;Laerm;68342;52.598;13.450;2024-01-06T00:55:04;37.06;29.96;56.81;;
37162;Laerm;68342;52.598;13.450;2024-01-06T00:57:29;35.85;29.34;56.09;;
37162;Laerm;68342;52.598;13.450;2024-01-06T00:59:54;36.13;29.37;59.12;;
37162;Laerm;68342;52.598;13.450;2024-01-06T01:02:19;36.26;29.75;58.48;;
37162;Laerm;68342;52.598;13.450;2024-01-06T01:04:45;35.85;29.79;54.41;;
37162;Laerm;68342;52.598;13.450;2024-01-06T01:07:10;35.84;29.88;59.36;;
37162;Laerm;68342;52.598;13.450;2024-01-06T01:09:35;35.90;29.71;55.69;;
37162;Laerm;68342;52.598;13.450;2024-01-06T01:12:00;36.99;29.69;58.13;;
37162;Laerm;68342;52.598;13.450;2024-01-06T01:14:26;36.63;29.70;55.95;;
37162;Laerm;68342;52.598;13.450;2024-01-06T01:16:51;37.03;30.25;59.07;;
37162;Laerm;68342;52.598;13.450;2024-01-06T01:19:16;36.51;29.70;58.42;;
37162;Laerm;68342;52.598;13.450;2024-01-06T01:21:41;36.75;29.77;58.02;;
37162;Laerm;68342;52.598;13.450;2024-01-06T01:24:07;37.52;29.64;54.47;;
37162;Laerm;68342;52.598;13.450;2024-01-06T01:26:32;36.78;29.81;55.74;;
37162;Laerm;68342;52.598;13.450;2024-01-06T01:28:57;38.64;30.29;56.86;;
37162;Laerm;68342;52.598;13.450;2024-01-06T01:31:22;37.44;30.18;57.82;;
37162;Laerm;68342;52.598;13.450;2024-01-06T01:33:48;35.93;29.59;53.46;;
37162;Laerm;68342;52.598;13.450;2024-01-06T01:36:14;36.13;29.64;57.61;;
37162;Laerm;68342;52.598;13.450;2024-01-06T01:38:39;36.07;29.64;57.31;;
37162;Laerm;68342;52.598;13.450;2024-01-06T01:41:04;36.36;29.84;55.34;;
37162;Laerm;68342;52.598;13.450;2024-01-06T01:43:29;38.17;31.11;54.88;;
37162;Laerm;68342;52.598;13.450;2024-01-06T01:45:55;38.12;30.28;58.08;;
37162;Laerm;68342;52.598;13.450;2024-01-06T01:48:20;37.06;29.56;56.44;;
37162;Laerm;68342;52.598;13.450;2024-01-06T01:50:46;36.64;29.75;55.80;;
37162;Laerm;68342;52.598;13.450;2024-01-06T01:53:12;36.54;29.73;57.81;;
37162;Laerm;68342;52.598;13.450;2024-01-06T01:55:37;36.10;29.92;53.89;;
37162;Laerm;68342;52.598;13.450;2024-01-06T01:58:03;36.03;29.45;57.12;;
37162;Laerm;68342;52.598;13.450;2024-01-06T02:00:29;35.61;29.55;56.06;;
37162;Laerm;68342;52.598;13.450;2024-01-06T02:02:55;37.42;29.63;56.45;;
37162;Laerm;68342;52.598;13.450;2024-01-06T02:05:20;35.66;29.60;52.39;;
37162;Laerm;68342;52.598;13.450;2024-01-06T02:07:45;36.25;30.10;54.43;;
37162;Laerm;68342;52.598;13.450;2024-01-06T02:15:18;36.82;29.57;58.21;;
37162;Laerm;68342;52.598;13.450;2024-01-06T02:17:44;36.24;29.51;57.50;;
37162;Laerm;68342;52.598;13.450;2024-01-06T02:20:09;36.11;29.31;56.94;;
37162;Laerm;68342;52.598;13.450;2024-01-06T02:22:36;35.85;29.62;52.68;;
37162;Laerm;68342;52.598;13.450;2024-01-06T02:25:02;36.39;29.61;58.71;;
37162;Laerm;68342;52.598;13.450;2024-01-06T02:27:28;36.39;30.02;56.52;;
37162;Laerm;68342;52.598;13.450;2024-01-06T02:29:53;36.79;29.83;54.23;;
37162;Laerm;68342;52.598;13.450;2024-01-06T02:32:18;36.21;30.26;52.05;;
37162;Laerm;68342;52.598;13.450;2024-01-06T02:34:43;36.23;29.95;57.49;;
37162;Laerm;68342;52.598;13.450;2024-01-06T02:37:09;36.55;29.44;54.84;;
37162;Laerm;68342;52.598;13.450;2024-01-06T02:39:34;36.89;30.08;53.45;;
37162;Laerm;68342;52.598;13.450;2024-01-06T02:41:59;35.86;29.65;52.91;;
37162;Laerm;68342;52.598;13.450;2024-01-06T02:44:24;37.12;30.21;53.24;;
37162;Laerm;68342;52.598;13.450;2024-01-06T02:46:50;36.49;29.76;55.46;;
37162;Laerm;68342;52.598;13.450;2024-01-06T02:49:15;36.28;30.32;55.31;;
37162;Laerm;68342;52.598;13.450;2024-01-06T02:51:40;39.28;30.51;56.61;;
37162;Laerm;68342;52.598;13.450;2024-01-06T02:54:05;37.30;29.93;58.83;;
37162;Laerm;68342;52.598;13.450;2024-01-06T02:56:31;36.52;29.39;55.64;;
37162;Laerm;68342;52.598;13.450;2024-01-06T02:58:56;37.80;30.18;57.80;;
37162;Laerm;68342;52.598;13.450;2024-01-06T03:01:21;38.34;30.83;59.04;;
37162;Laerm;68342;52.598;13.450;2024-01-06T03:03:46;37.80;29.91;54.12;;
37162;Laerm;68342;52.598;13.450;2024-01-06T03:06:12;36.87;30.33;56.47;;
37162;Laerm;68342;52.598;13.450;2024-01-06T03:08:37;36.37;30.42;56.94;;
37162;Laerm;68342;52.598;13.450;2024-01-06T03:11:02;35.91;29.57;54.12;;
37162;Laerm;68342;52.598;13.450;2024-01-06T03:13:29;36.39;29.75;55.66;;
37162;Laerm;68342;52.598;13.450;2024-01-06T03:15:55;37.11;30.49;57.85;;
37162;Laerm;68342;52.598;13.450;2024-01-06T03:18:20;36.92;30.15;58.74;;
37162;Laerm;68342;52.598;13.450;2024-01-06T03:20:45;37.55;31.26;54.97;;
37162;Laerm;68342;52.598;13.450;2024-01-06T03:23:10;36.48;30.24;56.29;;
37162;Laerm;68342;52.598;13.450;2024-01-06T03:25:36;36.22;30.11;56.08;;
37162;Laerm;68342;52.598;13.450;2024-01-06T03:28:01;36.19;29.97;58.19;;
37162;Laerm;68342;52.598;13.450;2024-01-06T03:30:26;36.34;29.59;56.79;;
37162;Laerm;68342;52.598;13.450;2024-01-06T03:32:51;37.21;30.00;54.91;;
37162;Laerm;68342;52.598;13.450;2024-01-06T03:35:17;38.18;31.84;55.24;;
37162;Laerm;68342;52.598;13.450;2024-01-06T03:37:43;37.85;32.20;53.31;;
37162;Laerm;68342;52.598;13.450;2024-01-06T03:40:08;37.89;32.03;60.10;;
37162;Laerm;68342;52.598;13.450;2024-01-06T03:42:33;36.87;30.75;53.34;;
37162;Laerm;68342;52.598;13.450;2024-01-06T03:44:59;37.48;30.38;56.70;;
37162;Laerm;68342;52.598;13.450;2024-01-06T03:47:24;36.41;29.94;57.24;;
37162;Laerm;68342;52.598;13.450;2024-01-06T03:49:49;36.48;30.17;53.52;;
37162;Laerm;68342;52.598;13.450;2024-01-06T03:52:15;37.65;30.31;59.76;;
37162;Laerm;68342;52.598;13.450;2024-01-06T03:54:40;36.28;30.49;54.83;;
37162;Laerm;68342;52.598;13.450;2024-01-06T03:57:05;36.89;30.59;55.30;;
37162;Laerm;68342;52.598;13.450;2024-01-06T03:59:30;41.35;31.41;57.17;;
37162;Laerm;68342;52.598;13.450;2024-01-06T04:01:56;36.51;30.81;57.46;;
37162;Laerm;68342;52.598;13.450;2024-01-06T04:04:21;36.91;31.17;56.77;;
37162;Laerm;68342;52.598;13.450;2024-01-06T04:06:46;39.63;31.49;64.30;;
37162;Laerm;68342;52.598;13.450;2024-01-06T04:09:11;37.40;31.37;56.15;;
37162;Laerm;68342;52.598;13.450;2024-01-06T04:11:37;37.28;30.57;60.18;;
37162;Laerm;68342;52.598;13.450;2024-01-06T04:14:02;37.31;30.99;57.32;;
37162;Laerm;68342;52.598;13.450;2024-01-06T04:16:28;36.80;30.95;55.81;;
37162;Laerm;68342;52.598;13.450;2024-01-06T04:18:53;38.97;30.56;58.18;;
37162;Laerm;68342;52.598;13.450;2024-01-06T04:21:19;37.82;31.34;55.63;;
37162;Laerm;68342;52.598;13.450;2024-01-06T04:23:44;44.19;32.60;56.94;;
37162;Laerm;68342;52.598;13.450;2024-01-06T04:26:09;37.47;32.27;55.16;;
37162;Laerm;68342;52.598;13.450;2024-01-06T04:28:35;37.31;30.47;54.88;;
37162;Laerm;68342;52.598;13.450;2024-01-06T04:31:00;36.61;30.65;57.84;;
37162;Laerm;68342;52.598;13.450;2024-01-06T04:33:25;36.87;30.39;55.91;;
37162;Laerm;68342;52.598;13.450;2024-01-06T04:35:50;37.66;31.05;55.99;;
37162;Laerm;68342;52.598;13.450;2024-01-06T04:38:16;36.92;31.23;56.73;;
37162;Laerm;68342;52.598;13.450;2024-01-06T04:40:41;37.57;31.40;57.98;;
37162;Laerm;68342;52.598;13.450;2024-01-06T04:43:06;37.35;31.63;55.39;;
37162;Laerm;68342;52.598;13.450;2024-01-06T04:45:32;38.38;30.65;52.79;;
37162;Laerm;68342;52.598;13.450;2024-01-06T04:47:57;36.78;30.57;54.34;;
37162;Laerm;68342;52.598;13.450;2024-01-06T04:50:22;36.62;31.29;51.05;;
37162;Laerm;68342;52.598;13.450;2024-01-06T04:52:48;37.66;30.02;56.59;;
37162;Laerm;68342;52.598;13.450;2024-01-06T04:55:13;37.45;30.29;56.39;;
37162;Laerm;68342;52.598;13.450;2024-01-06T04:57:38;38.64;30.61;57.55;;
37162;Laerm;68342;52.598;13.450;2024-01-06T05:00:04;37.65;31.55;55.03;;
37162;Laerm;68342;52.598;13.450;2024-01-06T05:02:29;37.21;31.12;54.92;;
37162;Laerm;68342;52.598;13.450;2024-01-06T05:04:55;36.49;30.14;55.65;;
37162;Laerm;68342;52.598;13.450;2024-01-06T05:07:20;36.66;30.40;56.21;;
37162;Laerm;68342;52.598;13.450;2024-01-06T05:09:45;37.22;31.85;51.94;;
37162;Laerm;68342;52.598;13.450;2024-01-06T05:12:10;36.99;31.57;54.40;;
37162;Laerm;68342;52.598;13.450;2024-01-06T05:14:36;37.50;32.27;56.18;;
37162;Laerm;68342;52.598;13.450;2024-01-06T05:17:01;39.18;32.43;55.09;;
37162;Laerm;68342;52.598;13.450;2024-01-06T05:19:26;38.18;32.59;58.46;;
37162;Laerm;68342;52.598;13.450;2024-01-06T05:21:51;38.00;32.98;58.96;;
37162;Laerm;68342;52.598;13.450;2024-01-06T05:24:17;38.46;33.12;57.27;;
37162;Laerm;68342;52.598;13.450;2024-01-06T05:26:42;37.90;31.98;60.06;;
37162;Laerm;68342;52.598;13.450;2024-01-06T05:29:07;38.76;32.94;52.74;;
37162;Laerm;68342;52.598;13.450;2024-01-06T05:31:33;37.57;31.35;56.67;;
37162;Laerm;68342;52.598;13.450;2024-01-06T05:33:58;37.16;30.10;56.78;;
37162;Laerm;68342;52.598;13.450;2024-01-06T05:36:23;36.85;30.36;56.54;;
37162;Laerm;68342;52.598;13.450;2024-01-06T05:38:49;36.94;30.83;55.37;;
37162;Laerm;68342;52.598;13.450;2024-01-06T05:41:14;36.89;30.96;53.21;;
37162;Laerm;68342;52.598;13.450;2024-01-06T05:43:39;38.48;30.70;56.56;;
37162;Laerm;68342;52.598;13.450;2024-01-06T05:46:05;40.22;31.90;58.05;;
37162;Laerm;68342;52.598;13.450;2024-01-06T05:48:30;38.09;31.50;55.00;;
37162;Laerm;68342;52.598;13.450;2024-01-06T05:50:58;44.84;32.77;59.29;;
37162;Laerm;68342;52.598;13.450;2024-01-06T05:53:24;39.70;31.64;53.20;;
37162;Laerm;68342;52.598;13.450;2024-01-06T05:55:49;40.31;32.93;53.84;;
37162;Laerm;68342;52.598;13.450;2024-01-06T05:58:18;39.13;31.82;55.03;;
37162;Laerm;68342;52.598;13.450;2024-01-06T06:00:43;40.09;33.14;56.18;;
37162;Laerm;68342;52.598;13.450;2024-01-06T06:03:10;39.59;33.24;56.53;;
37162;Laerm;68342;52.598;13.450;2024-01-06T06:05:35;39.49;31.83;53.11;;
37162;Laerm;68342;52.598;13.450;2024-01-06T06:08:01;37.53;31.93;53.03;;
37162;Laerm;68342;52.598;13.450;2024-01-06T06:10:29;38.74;32.36;58.01;;
37162;Laerm;68342;52.598;13.450;2024-01-06T06:13:05;40.05;31.75;54.59;;
37162;Laerm;68342;52.598;13.450;2024-01-06T06:15:31;38.71;32.01;54.49;;
37162;Laerm;68342;52.598;13.450;2024-01-06T06:17:57;39.63;33.18;56.71;;
37162;Laerm;68342;52.598;13.450;2024-01-06T06:20:25;39.97;33.58;56.25;;
37162;Laerm;68342;52.598;13.450;2024-01-06T06:22:50;37.91;32.01;55.23;;
37162;Laerm;68342;52.598;13.450;2024-01-06T06:25:15;38.99;33.13;55.36;;
37162;Laerm;68342;52.598;13.450;2024-01-06T06:27:41;38.27;32.23;58.09;;
37162;Laerm;68342;52.598;13.450;2024-01-06T06:30:06;38.08;31.76;54.86;;
37162;Laerm;68342;52.598;13.450;2024-01-06T06:32:31;37.23;32.26;55.79;;
37162;Laerm;68342;52.598;13.450;2024-01-06T06:34:57;39.57;32.36;58.65;;
37162;Laerm;68342;52.598;13.450;2024-01-06T06:37:22;38.54;33.01;57.11;;
37162;Laerm;68342;52.598;13.450;2024-01-06T06:39:47;38.42;32.73;53.64;;
37162;Laerm;68342;52.598;13.450;2024-01-06T06:42:12;38.45;32.88;60.21;;
37162;Laerm;68342;52.598;13.450;2024-01-06T06:44:38;40.76;32.57;59.63;;
37162;Laerm;68342;52.598;13.450;2024-01-06T06:47:03;38.41;33.23;52.50;;
37162;Laerm;68342;52.598;13.450;2024-01-06T06:49:28;40.88;33.51;55.52;;
37162;Laerm;68342;52.598;13.450;2024-01-06T06:51:53;38.23;31.98;55.20;;
37162;Laerm;68342;52.598;13.450;2024-01-06T06:54:20;40.25;32.54;61.91;;
37162;Laerm;68342;52.598;13.450;2024-01-06T06:56:46;40.78;33.27;57.80;;
37162;Laerm;68342;52.598;13.450;2024-01-06T06:59:11;40.44;34.49;56.00;;
37162;Laerm;68342;52.598;13.450;2024-01-06T07:01:37;39.63;32.09;56.98;;
37162;Laerm;68342;52.598;13.450;2024-01-06T07:04:02;37.96;32.26;55.42;;
37162;Laerm;68342;52.598;13.450;2024-01-06T07:06:28;38.30;32.16;53.38;;
37162;Laerm;68342;52.598;13.450;2024-01-06T07:08:54;40.80;32.85;57.52;;
37162;Laerm;68342;52.598;13.450;2024-01-06T07:11:19;39.25;32.35;57.07;;
37162;Laerm;68342;52.598;13.450;2024-01-06T07:13:44;39.98;32.95;54.62;;
37162;Laerm;68342;52.598;13.450;2024-01-06T07:16:09;40.82;33.19;55.71;;
37162;Laerm;68342;52.598;13.450;2024-01-06T07:18:36;41.09;33.23;62.68;;
37162;Laerm;68342;52.598;13.450;2024-01-06T07:21:01;41.45;32.75;61.84;;
37162;Laerm;68342;52.598;13.450;2024-01-06T07:23:29;41.71;34.21;64.43;;
37162;Laerm;68342;52.598;13.450;2024-01-06T07:25:55;39.55;33.50;60.37;;
37162;Laerm;68342;52.598;13.450;2024-01-06T07:28:20;40.23;34.10;52.64;;
37162;Laerm;68342;52.598;13.450;2024-01-06T07:30:45;40.06;33.96;56.89;;
37162;Laerm;68342;52.598;13.450;2024-01-06T07:33:10;41.64;33.59;59.05;;
37162;Laerm;68342;52.598;13.450;2024-01-06T07:35:36;40.19;33.60;52.28;;
37162;Laerm;68342;52.598;13.450;2024-01-06T07:38:01;43.57;32.87;61.76;;
37162;Laerm;68342;52.598;13.450;2024-01-06T07:40:27;39.71;33.29;56.00;;
37162;Laerm;68342;52.598;13.450;2024-01-06T07:42:52;39.06;33.26;54.95;;
37162;Laerm;68342;52.598;13.450;2024-01-06T07:45:17;42.20;33.20;56.99;;
37162;Laerm;68342;52.598;13.450;2024-01-06T07:47:42;41.45;33.52;57.87;;
37162;Laerm;68342;52.598;13.450;2024-01-06T07:50:08;41.50;34.54;59.34;;
37162;Laerm;68342;52.598;13.450;2024-01-06T07:52:33;40.47;34.31;55.53;;
37162;Laerm;68342;52.598;13.450;2024-01-06T07:54:59;40.16;33.13;59.52;;
37162;Laerm;68342;52.598;13.450;2024-01-06T07:57:24;41.06;33.03;58.46;;
37162;Laerm;68342;52.598;13.450;2024-01-06T07:59:49;42.22;33.96;56.97;;
37162;Laerm;68342;52.598;13.450;2024-01-06T08:02:15;40.69;33.47;58.17;;
37162;Laerm;68342;52.598;13.450;2024-01-06T08:04:41;43.75;33.25;62.86;;
37162;Laerm;68342;52.598;13.450;2024-01-06T08:07:06;39.80;34.05;57.02;;
37162;Laerm;68342;52.598;13.450;2024-01-06T08:09:31;40.50;34.20;54.48;;
37162;Laerm;68342;52.598;13.450;2024-01-06T08:11:57;40.79;33.75;55.48;;
37162;Laerm;68342;52.598;13.450;2024-01-06T08:14:22;40.14;34.98;55.63;;
37162;Laerm;68342;52.598;13.450;2024-01-06T08:16:47;40.90;33.31;59.00;;
37162;Laerm;68342;52.598;13.450;2024-01-06T08:19:12;42.34;35.18;54.58;;
37162;Laerm;68342;52.598;13.450;2024-01-06T08:21:38;41.96;34.59;53.50;;
37162;Laerm;68342;52.598;13.450;2024-01-06T08:24:03;39.74;33.92;55.61;;
37162;Laerm;68342;52.598;13.450;2024-01-06T08:26:29;42.03;34.00;58.03;;
37162;Laerm;68342;52.598;13.450;2024-01-06T08:28:54;40.96;34.46;58.08;;
37162;Laerm;68342;52.598;13.450;2024-01-06T08:31:19;40.97;34.45;59.11;;
37162;Laerm;68342;52.598;13.450;2024-01-06T08:33:45;38.63;33.91;57.03;;
37162;Laerm;68342;52.598;13.450;2024-01-06T08:36:10;41.97;34.96;58.83;;
37162;Laerm;68342;52.598;13.450;2024-01-06T08:38:35;41.31;34.49;55.61;;
37162;Laerm;68342;52.598;13.450;2024-01-06T08:41:01;39.72;34.76;52.36;;
37162;Laerm;68342;52.598;13.450;2024-01-06T08:43:27;41.12;35.14;57.99;;
37162;Laerm;68342;52.598;13.450;2024-01-06T08:45:52;42.60;35.58;62.10;;
37162;Laerm;68342;52.598;13.450;2024-01-06T08:48:17;42.55;36.06;57.92;;
37162;Laerm;68342;52.598;13.450;2024-01-06T08:50:43;42.84;36.95;53.08;;
37162;Laerm;68342;52.598;13.450;2024-01-06T08:53:10;41.23;34.44;55.87;;
37162;Laerm;68342;52.598;13.450;2024-01-06T08:55:35;40.76;33.39;59.43;;
37162;Laerm;68342;52.598;13.450;2024-01-06T08:58:01;46.07;34.69;64.48;;
37162;Laerm;68342;52.598;13.450;2024-01-06T09:00:26;42.15;34.81;63.06;;
37162;Laerm;68342;52.598;13.450;2024-01-06T09:02:51;42.65;34.27;55.53;;
37162;Laerm;68342;52.598;13.450;2024-01-06T09:05:16;38.50;33.96;55.25;;
37162;Laerm;68342;52.598;13.450;2024-01-06T09:07:42;38.20;33.50;55.01;;
37162;Laerm;68342;52.598;13.450;2024-01-06T09:10:07;40.82;34.37;55.44;;
37162;Laerm;68342;52.598;13.450;2024-01-06T09:12:35;48.42;35.74;62.71;;
37162;Laerm;68342;52.598;13.450;2024-01-06T09:15:08;40.22;34.49;56.65;;
37162;Laerm;68342;52.598;13.450;2024-01-06T09:17:36;42.07;35.31;54.95;;
37162;Laerm;68342;52.598;13.450;2024-01-06T09:20:04;40.88;34.05;58.03;;
37162;Laerm;68342;52.598;13.450;2024-01-06T09:22:31;43.00;36.55;53.41;;
37162;Laerm;68342;52.598;13.450;2024-01-06T09:24:57;40.46;34.78;55.01;;
37162;Laerm;68342;52.598;13.450;2024-01-06T09:27:23;39.84;34.84;56.03;;
37162;Laerm;68342;52.598;13.450;2024-01-06T09:29:52;41.15;35.40;61.34;;
37162;Laerm;68342;52.598;13.450;2024-01-06T09:32:19;40.79;35.53;54.41;;
37162;Laerm;68342;52.598;13.450;2024-01-06T09:34:48;39.85;35.38;52.76;;
37162;Laerm;68342;52.598;13.450;2024-01-06T09:37:13;40.67;34.61;53.14;;
37162;Laerm;68342;52.598;13.450;2024-01-06T09:39:42;48.56;35.26;72.67;;
37162;Laerm;68342;52.598;13.450;2024-01-06T09:42:19;42.33;34.33;61.69;;
37162;Laerm;68342;52.598;13.450;2024-01-06T09:44:47;42.21;35.16;61.81;;
37162;Laerm;68342;52.598;13.450;2024-01-06T09:47:12;41.67;35.00;58.58;;
37162;Laerm;68342;52.598;13.450;2024-01-06T09:49:39;41.20;35.05;55.79;;
37162;Laerm;68342;52.598;13.450;2024-01-06T09:52:07;38.83;34.49;54.74;;
37162;Laerm;68342;52.598;13.450;2024-01-06T09:54:42;39.31;34.61;54.64;;
37162;Laerm;68342;52.598;13.450;2024-01-06T09:57:12;42.31;35.03;58.95;;
37162;Laerm;68342;52.598;13.450;2024-01-06T09:59:40;43.07;34.46;57.88;;
37162;Laerm;68342;52.598;13.450;2024-01-06T10:02:10;44.91;35.25;61.07;;
37162;Laerm;68342;52.598;13.450;2024-01-06T10:04:40;47.01;35.32;65.03;;
37162;Laerm;68342;52.598;13.450;2024-01-06T10:07:12;41.90;35.13;59.30;;
37162;Laerm;68342;52.598;13.450;2024-01-06T10:09:43;41.99;34.18;60.72;;
37162;Laerm;68342;52.598;13.450;2024-01-06T10:12:16;39.33;34.30;57.29;;
37162;Laerm;68342;52.598;13.450;2024-01-06T10:14:53;39.61;34.56;54.41;;
37162;Laerm;68342;52.598;13.450;2024-01-06T10:17:20;42.16;34.46;58.40;;
37162;Laerm;68342;52.598;13.450;2024-01-06T10:19:47;40.35;33.77;57.26;;
37162;Laerm;68342;52.598;13.450;2024-01-06T10:22:14;42.15;35.06;58.34;;
37162;Laerm;68342;52.598;13.450;2024-01-06T10:24:45;42.78;35.67;62.61;;
37162;Laerm;68342;52.598;13.450;2024-01-06T10:27:16;42.29;34.70;60.82;;
37162;Laerm;68342;52.598;13.450;2024-01-06T10:29:42;43.43;34.83;63.67;;
37162;Laerm;68342;52.598;13.450;2024-01-06T10:32:31;46.16;34.41;68.78;;
37162;Laerm;68342;52.598;13.450;2024-01-06T10:35:04;48.11;35.27;73.27;;
37162;Laerm;68342;52.598;13.450;2024-01-06T10:37:35;41.59;35.28;58.11;;
37162;Laerm;68342;52.598;13.450;2024-01-06T10:40:12;41.38;35.71;62.06;;
37162;Laerm;68342;52.598;13.450;2024-01-06T10:42:44;41.46;34.84;55.73;;
37162;Laerm;68342;52.598;13.450;2024-01-06T10:45:15;40.00;34.95;54.73;;
37162;Laerm;68342;52.598;13.450;2024-01-06T10:47:47;41.90;35.42;55.71;;
37162;Laerm;68342;52.598;13.450;2024-01-06T10:50:35;39.93;34.83;54.35;;
37162;Laerm;68342;52.598;13.450;2024-01-06T10:53:40;40.47;34.54;59.67;;
37162;Laerm;68342;52.598;13.450;2024-01-06T10:56:13;40.07;35.18;56.20;;
37162;Laerm;68342;52.598;13.450;2024-01-06T10:58:45;40.43;34.57;54.70;;
37162;Laerm;68342;52.598;13.450;2024-01-06T11:01:21;42.73;36.13;61.56;;
37162;Laerm;68342;52.598;13.450;2024-01-06T11:03:53;40.79;35.03;56.97;;
37162;Laerm;68342;52.598;13.450;2024-01-06T11:06:41;43.52;34.74;59.85;;
37162;Laerm;68342;52.598;13.450;2024-01-06T11:09:27;43.76;35.01;64.49;;
37162;Laerm;68342;52.598;13.450;2024-01-06T11:12:10;43.70;35.13;61.03;;
37162;Laerm;68342;52.598;13.450;2024-01-06T11:14:45;43.03;35.31;71.67;;
37162;Laerm;68342;52.598;13.450;2024-01-06T11:20:30;41.34;34.99;62.71;;
37162;Laerm;68342;52.598;13.450;2024-01-06T11:23:21;40.13;34.74;55.14;;
37162;Laerm;68342;52.598;13.450;2024-01-06T11:25:55;40.45;35.33;55.51;;
37162;Laerm;68342;52.598;13.450;2024-01-06T11:28:23;39.89;35.69;55.41;;
37162;Laerm;68342;52.598;13.450;2024-01-06T11:45:30;47.03;35.10;67.17;;
37162;Laerm;68342;52.598;13.450;2024-01-06T11:47:56;48.16;36.67;72.51;;
37162;Laerm;68342;52.598;13.450;2024-01-06T11:50:24;46.93;36.42;66.59;;
37162;Laerm;68342;52.598;13.450;2024-01-06T11:52:49;41.19;35.16;60.97;;
37162;Laerm;68342;52.598;13.450;2024-01-06T11:55:17;40.88;36.17;57.62;;
37162;Laerm;68342;52.598;13.450;2024-01-06T11:57:42;42.65;36.43;58.31;;
37162;Laerm;68342;52.598;13.450;2024-01-06T12:00:07;60.75;36.15;87.17;;
37162;Laerm;68342;52.598;13.450;2024-01-06T12:02:33;44.18;35.68;68.04;;
37162;Laerm;68342;52.598;13.450;2024-01-06T12:04:58;62.94;34.85;87.39;;
37162;Laerm;68342;52.598;13.450;2024-01-06T12:07:23;49.14;36.11;78.15;;
37162;Laerm;68342;52.598;13.450;2024-01-06T12:09:50;44.15;36.60;69.38;;
37162;Laerm;68342;52.598;13.450;2024-01-06T12:12:16;42.23;35.97;61.15;;
37162;Laerm;68342;52.598;13.450;2024-01-06T12:14:41;41.90;35.90;60.02;;
37162;Laerm;68342;52.598;13.450;2024-01-06T12:17:11;40.52;35.72;59.93;;
37162;Laerm;68342;52.598;13.450;2024-01-06T12:19:38;41.92;36.75;59.19;;
37162;Laerm;68342;52.598;13.450;2024-01-06T12:22:04;41.68;35.98;55.47;;
37162;Laerm;68342;52.598;13.450;2024-01-06T12:24:29;41.03;36.23;54.80;;
37162;Laerm;68342;52.598;13.450;2024-01-06T12:26:56;39.61;34.95;56.63;;
37162;Laerm;68342;52.598;13.450;2024-01-06T12:29:22;41.96;36.53;54.55;;
37162;Laerm;68342;52.598;13.450;2024-01-06T12:31:47;41.83;36.18;58.15;;
37162;Laerm;68342;52.598;13.450;2024-01-06T12:34:12;40.44;35.31;55.27;;
37162;Laerm;68342;52.598;13.450;2024-01-06T12:36:38;41.78;35.51;55.13;;
37162;Laerm;68342;52.598;13.450;2024-01-06T12:39:04;41.69;36.43;54.64;;
37162;Laerm;68342;52.598;13.450;2024-01-06T12:41:29;41.72;35.81;59.45;;
37162;Laerm;68342;52.598;13.450;2024-01-06T12:43:55;43.40;36.66;69.44;;
37162;Laerm;68342;52.598;13.450;2024-01-06T12:46:20;41.97;35.00;61.18;;
37162;Laerm;68342;52.598;13.450;2024-01-06T12:48:46;42.08;34.71;59.39;;
37162;Laerm;68342;52.598;13.450;2024-01-06T12:51:11;42.56;35.93;58.29;;
37162;Laerm;68342;52.598;13.450;2024-01-06T12:53:36;40.86;35.29;55.14;;
37162;Laerm;68342;52.598;13.450;2024-01-06T12:56:01;42.18;35.88;58.54;;
37162;Laerm;68342;52.598;13.450;2024-01-06T12:58:27;39.40;34.76;55.38;;
37162;Laerm;68342;52.598;13.450;2024-01-06T13:00:52;40.97;35.17;57.72;;
37162;Laerm;68342;52.598;13.450;2024-01-06T13:03:17;41.10;35.98;56.05;;
37162;Laerm;68342;52.598;13.450;2024-01-06T13:05:43;42.60;34.83;56.61;;
37162;Laerm;68342;52.598;13.450;2024-01-06T13:08:09;41.72;35.60;56.77;;
37162;Laerm;68342;52.598;13.450;2024-01-06T13:10:34;42.73;36.63;61.35;;
37162;Laerm;68342;52.598;13.450;2024-01-06T13:13:00;41.67;35.05;55.37;;
37162;Laerm;68342;52.598;13.450;2024-01-06T13:15:26;40.62;35.10;54.67;;
37162;Laerm;68342;52.598;13.450;2024-01-06T13:17:51;42.41;35.90;54.91;;
37162;Laerm;68342;52.598;13.450;2024-01-06T13:20:16;39.81;35.02;56.72;;
37162;Laerm;68342;52.598;13.450;2024-01-06T13:22:41;40.92;35.16;57.57;;
37162;Laerm;68342;52.598;13.450;2024-01-06T13:25:07;40.80;35.55;55.08;;
37162;Laerm;68342;52.598;13.450;2024-01-06T13:27:34;39.85;34.90;56.14;;
37162;Laerm;68342;52.598;13.450;2024-01-06T13:29:59;40.78;33.93;55.71;;
37162;Laerm;68342;52.598;13.450;2024-01-06T13:32:24;41.43;34.20;56.62;;
37162;Laerm;68342;52.598;13.450;2024-01-06T13:34:52;40.97;34.87;57.97;;
37162;Laerm;68342;52.598;13.450;2024-01-06T13:37:19;42.78;35.70;58.59;;
37162;Laerm;68342;52.598;13.450;2024-01-06T13:39:47;44.25;35.85;59.27;;
37162;Laerm;68342;52.598;13.450;2024-01-06T13:42:12;47.35;38.95;65.75;;
37162;Laerm;68342;52.598;13.450;2024-01-06T13:44:37;46.53;36.07;63.01;;
37162;Laerm;68342;52.598;13.450;2024-01-06T13:47:03;44.02;36.72;59.23;;
37162;Laerm;68342;52.598;13.450;2024-01-06T13:49:28;43.42;36.06;56.54;;
37162;Laerm;68342;52.598;13.450;2024-01-06T13:51:54;41.65;35.18;57.57;;